createdAt,value
2022-12-04T00:02:24.064Z,4.05
2022-12-04T00:04:50.792Z,4.02
2022-12-04T00:07:17.331Z,4.00
2022-12-04T00:09:43.723Z,3.99
2022-12-04T00:12:10.103Z,4.00
2022-12-04T00:14:54.597Z,4.00
2022-12-04T00:17:22.863Z,3.95
2022-12-04T00:19:49.379Z,3.94
2022-12-04T00:22:15.737Z,3.93
2022-12-04T00:24:42.094Z,3.94
2022-12-04T00:27:08.430Z,3.94
2022-12-04T00:29:34.873Z,3.93
2022-12-04T00:32:01.327Z,3.92
2022-12-04T00:34:28.392Z,3.92
2022-12-04T00:36:54.854Z,3.93
2022-12-04T00:39:21.354Z,3.93
2022-12-04T00:41:47.744Z,3.93
2022-12-04T00:44:14.108Z,3.94
2022-12-04T00:46:40.513Z,3.96
2022-12-04T00:49:06.849Z,3.94
2022-12-04T00:51:33.247Z,3.92
2022-12-04T00:53:59.641Z,3.91
2022-12-04T00:56:28.226Z,3.91
2022-12-04T00:58:56.923Z,3.93
2022-12-04T01:01:24.757Z,3.92
2022-12-04T01:03:51.899Z,3.92
2022-12-04T01:06:27.546Z,3.92
2022-12-04T01:08:56.145Z,3.91
2022-12-04T01:11:26.785Z,3.91
2022-12-04T01:13:53.566Z,3.90
2022-12-04T01:16:22.999Z,3.93
2022-12-04T01:18:50.378Z,3.93
2022-12-04T01:21:17.607Z,3.93
2022-12-04T01:23:44.254Z,3.95
2022-12-04T01:26:10.818Z,3.97
2022-12-04T01:28:37.545Z,3.98
2022-12-04T01:31:13.235Z,3.99
2022-12-04T01:33:40.503Z,3.99
2022-12-04T01:36:09.539Z,3.99
2022-12-04T01:38:36.510Z,3.99
2022-12-04T01:41:03.125Z,4.00
2022-12-04T01:43:31.513Z,4.02
2022-12-04T01:46:00.092Z,4.05
2022-12-04T01:48:37.377Z,4.05
2022-12-04T01:51:22.597Z,4.03
2022-12-04T01:53:59.110Z,4.01
2022-12-04T01:56:33.425Z,4.02
2022-12-04T01:59:02.228Z,4.03
2022-12-04T02:01:34.093Z,4.03
2022-12-04T02:04:02.322Z,4.05
2022-12-04T02:06:28.685Z,4.06
2022-12-04T02:08:55.338Z,4.08
2022-12-04T02:11:35.893Z,4.07
2022-12-04T02:14:20.954Z,4.06
2022-12-04T02:17:06.823Z,4.04
2022-12-04T02:19:58.802Z,4.02
2022-12-04T02:22:53.449Z,4.03
2022-12-04T02:25:38.121Z,4.01
2022-12-04T02:28:28.540Z,4.02
2022-12-04T02:30:58.394Z,3.99
2022-12-04T02:33:29.617Z,3.99
2022-12-04T02:36:03.556Z,4.01
2022-12-04T02:38:41.640Z,4.00
2022-12-04T02:41:14.819Z,3.98
2022-12-04T02:43:46.064Z,3.97
2022-12-04T02:46:23.970Z,3.97
2022-12-04T02:48:53.474Z,3.98
2022-12-04T02:51:21.503Z,3.99
2022-12-04T02:53:53.950Z,3.98
2022-12-04T02:56:26.846Z,3.97
2022-12-04T02:58:57.390Z,3.96
2022-12-04T03:01:29.663Z,3.95
2022-12-04T03:03:59.555Z,3.97
2022-12-04T03:06:29.133Z,3.99
2022-12-04T03:09:11.489Z,3.99
2022-12-04T03:11:40.527Z,3.98
2022-12-04T03:14:13.786Z,3.98
2022-12-04T03:16:42.360Z,4.00
2022-12-04T03:19:29.508Z,4.00
2022-12-04T03:22:06.968Z,3.99
2022-12-04T03:24:38.823Z,3.99
2022-12-04T03:27:08.589Z,3.98
2022-12-04T03:29:46.010Z,4.02
2022-12-04T03:32:17.629Z,4.03
2022-12-04T03:34:56.386Z,4.02
2022-12-04T03:37:45.224Z,4.01
2022-12-04T03:40:25.675Z,4.00
2022-12-04T03:43:17.302Z,4.01
2022-12-04T03:45:48.527Z,4.02
2022-12-04T03:48:22.951Z,4.02
2022-12-04T03:51:26.850Z,4.02
2022-12-04T03:54:02.461Z,4.04
2022-12-04T03:56:34.686Z,4.05
2022-12-04T03:59:11.280Z,4.05
2022-12-04T04:01:46.177Z,4.06
2022-12-04T04:04:18.182Z,4.06
2022-12-04T04:06:50.730Z,4.06
2022-12-04T04:09:24.329Z,4.06
2022-12-04T04:12:06.697Z,4.11
2022-12-04T04:15:15.791Z,4.12
2022-12-04T04:18:07.283Z,4.12
2022-12-04T04:20:57.295Z,4.10
2022-12-04T04:23:43.651Z,4.10
2022-12-04T04:26:13.222Z,4.08
2022-12-04T04:28:41.288Z,4.06
2022-12-04T04:31:21.176Z,4.04
2022-12-04T04:34:03.120Z,4.02
2022-12-04T04:36:40.936Z,3.98
2022-12-04T04:39:16.515Z,4.00
2022-12-04T04:41:51.108Z,4.02
2022-12-04T04:44:29.476Z,4.02
2022-12-04T04:47:01.989Z,4.02
2022-12-04T04:49:32.218Z,4.05
2022-12-04T04:51:58.933Z,4.09
2022-12-04T04:54:27.750Z,4.11
2022-12-04T04:56:54.188Z,4.13
2022-12-04T04:59:20.580Z,4.12
2022-12-04T05:01:47.684Z,4.11
2022-12-04T05:04:14.892Z,4.09
2022-12-04T05:06:41.339Z,4.07
2022-12-04T05:09:07.723Z,4.07
2022-12-04T05:11:38.722Z,4.06
2022-12-04T05:14:06.059Z,4.06
2022-12-04T05:16:32.704Z,4.07
2022-12-04T05:19:17.790Z,4.09
2022-12-04T05:21:44.223Z,4.08
2022-12-04T05:24:10.639Z,4.08
2022-12-04T05:26:37.097Z,4.07
2022-12-04T05:29:03.499Z,4.08
2022-12-04T05:31:30.052Z,4.08
2022-12-04T05:33:57.107Z,4.09
2022-12-04T05:36:23.579Z,4.10
2022-12-04T05:38:49.919Z,4.08
2022-12-04T05:41:16.266Z,4.06
2022-12-04T05:43:42.749Z,4.07
2022-12-04T05:46:10.587Z,4.07
2022-12-04T05:48:37.265Z,4.10
2022-12-04T05:51:08.036Z,4.12
2022-12-04T05:53:34.701Z,4.14
2022-12-04T05:56:03.393Z,4.15
2022-12-04T05:58:30.405Z,4.16
2022-12-04T06:00:56.924Z,4.15
2022-12-04T06:03:23.383Z,4.15
2022-12-04T06:05:49.897Z,4.16
2022-12-04T06:08:16.406Z,4.16
2022-12-04T06:10:42.822Z,4.16
2022-12-04T06:13:09.262Z,4.18
2022-12-04T06:15:39.717Z,4.18
2022-12-04T06:18:06.232Z,4.18
2022-12-04T06:20:33.233Z,4.18
2022-12-04T06:22:59.892Z,4.19
2022-12-04T06:25:26.341Z,4.20
2022-12-04T06:27:52.676Z,4.18
2022-12-04T06:30:19.058Z,4.17
2022-12-04T06:32:45.512Z,4.19
2022-12-04T06:35:11.858Z,4.19
2022-12-04T06:37:38.320Z,4.18
2022-12-04T06:40:05.440Z,4.19
2022-12-04T06:42:31.886Z,4.20
2022-12-04T06:44:58.321Z,4.21
2022-12-04T06:47:24.737Z,4.22
2022-12-04T06:49:51.519Z,4.21
2022-12-04T06:52:18.057Z,4.22
2022-12-04T06:54:44.573Z,4.26
2022-12-04T06:57:10.958Z,4.26
2022-12-04T06:59:37.544Z,4.26
2022-12-04T07:02:03.978Z,4.25
2022-12-04T07:04:30.516Z,4.25
2022-12-04T07:06:56.875Z,4.26
2022-12-04T07:09:23.400Z,4.26
2022-12-04T07:11:49.805Z,4.26
2022-12-04T07:14:16.198Z,4.26
2022-12-04T07:16:43.089Z,4.27
2022-12-04T07:19:11.080Z,4.27
2022-12-04T07:21:37.452Z,4.28
2022-12-04T07:24:04.135Z,4.28
2022-12-04T07:26:30.818Z,4.27
2022-12-04T07:28:58.490Z,4.26
2022-12-04T07:31:26.440Z,4.26
2022-12-04T07:33:54.424Z,4.27
2022-12-04T07:36:21.806Z,4.27
2022-12-04T07:38:48.487Z,4.26
2022-12-04T07:41:15.701Z,4.25
2022-12-04T07:43:42.455Z,4.25
2022-12-04T07:46:13.423Z,4.29
2022-12-04T07:48:40.412Z,4.31
2022-12-04T07:51:16.283Z,4.32
2022-12-04T07:53:43.328Z,4.36
2022-12-04T07:56:11.209Z,4.36
2022-12-04T07:58:38.170Z,4.38
2022-12-04T08:01:13.800Z,4.37
2022-12-04T08:03:47.161Z,4.37
2022-12-04T08:06:14.579Z,4.37
2022-12-04T08:08:40.937Z,4.39
2022-12-04T08:11:09.460Z,4.41
2022-12-04T08:13:36.237Z,4.42
2022-12-04T08:16:03.862Z,4.44
2022-12-04T08:18:30.535Z,4.46
2022-12-04T08:21:04.854Z,4.47
2022-12-04T08:23:31.281Z,4.47
2022-12-04T08:26:00.215Z,4.49
2022-12-04T08:28:27.949Z,4.52
2022-12-04T08:30:54.381Z,4.51
2022-12-04T08:33:21.419Z,4.53
2022-12-04T08:35:47.788Z,4.55
2022-12-04T08:38:14.226Z,4.54
2022-12-04T08:40:42.436Z,4.56
2022-12-04T08:43:08.763Z,4.59
2022-12-04T08:45:35.203Z,4.62
2022-12-04T08:48:02.188Z,4.64
2022-12-04T08:50:28.671Z,4.64
2022-12-04T08:52:55.153Z,4.67
2022-12-04T08:55:21.584Z,4.71
2022-12-04T08:57:48.005Z,4.73
2022-12-04T09:00:15.456Z,4.73
2022-12-04T09:02:42.117Z,4.76
2022-12-04T09:05:08.722Z,4.76
2022-12-04T09:07:35.227Z,4.76
2022-12-04T09:10:01.844Z,4.81
2022-12-04T09:12:28.712Z,4.86
2022-12-04T09:14:55.111Z,4.87
2022-12-04T09:17:21.505Z,4.90
2022-12-04T09:19:47.869Z,4.91
2022-12-04T09:22:14.237Z,4.95
2022-12-04T09:24:40.707Z,4.96
2022-12-04T09:27:12.889Z,4.98
2022-12-04T09:29:41.079Z,5.00
2022-12-04T09:32:07.478Z,5.02
2022-12-04T09:34:33.942Z,5.04
2022-12-04T09:37:00.291Z,5.06
2022-12-04T09:39:28.533Z,5.06
2022-12-04T09:42:10.482Z,5.08
2022-12-04T09:44:44.063Z,5.12
2022-12-04T09:47:24.104Z,5.13
2022-12-04T09:49:59.051Z,5.14
2022-12-04T09:52:30.500Z,5.17
2022-12-04T09:54:58.483Z,5.16
2022-12-04T09:57:47.220Z,5.18
2022-12-04T10:00:17.391Z,5.20
2022-12-04T10:02:55.004Z,5.22
2022-12-04T10:05:38.603Z,5.24
2022-12-04T10:08:15.621Z,5.26
2022-12-04T10:10:54.779Z,5.27
2022-12-04T10:14:23.059Z,5.30
2022-12-04T10:17:03.250Z,5.32
2022-12-04T10:19:36.119Z,5.35
2022-12-04T10:22:24.810Z,5.34
2022-12-04T10:24:53.640Z,5.36
2022-12-04T10:27:26.436Z,5.36
2022-12-04T10:29:59.240Z,5.36
2022-12-04T10:32:31.790Z,5.36
2022-12-04T10:35:15.175Z,5.36
2022-12-04T10:37:43.410Z,5.36
2022-12-04T10:40:18.085Z,5.36
2022-12-04T10:42:55.937Z,5.37
2022-12-04T10:45:23.530Z,5.37
2022-12-04T10:47:53.014Z,5.37
2022-12-04T10:50:24.873Z,5.37
2022-12-04T10:52:51.618Z,5.38
2022-12-04T10:55:29.668Z,5.36
2022-12-04T10:57:56.343Z,5.40
2022-12-04T11:00:31.949Z,5.35
2022-12-04T11:03:24.610Z,5.35
2022-12-04T11:05:58.011Z,5.35
2022-12-04T11:08:28.042Z,5.35
2022-12-04T11:11:01.340Z,5.36
2022-12-04T11:13:28.599Z,5.36
2022-12-04T11:15:56.851Z,5.35
2022-12-04T11:18:26.993Z,5.34
2022-12-04T11:21:22.940Z,5.34
2022-12-04T11:23:51.246Z,5.36
2022-12-04T11:26:31.267Z,5.36
2022-12-04T11:29:01.190Z,5.37
2022-12-04T11:31:29.454Z,5.36
2022-12-04T11:33:59.981Z,5.38
2022-12-04T11:36:41.650Z,5.38
2022-12-04T11:39:15.374Z,5.39
2022-12-04T11:41:41.816Z,5.38
2022-12-04T11:44:49.937Z,5.38
2022-12-04T11:47:18.897Z,5.39
2022-12-04T11:49:45.989Z,5.41
2022-12-04T11:52:45.670Z,5.42
2022-12-04T11:55:28.895Z,5.42
2022-12-04T11:58:25.750Z,5.43
2022-12-04T12:01:11.230Z,5.45
2022-12-04T12:04:03.594Z,5.46
2022-12-04T12:06:35.033Z,5.47
2022-12-04T12:09:16.321Z,5.48
2022-12-04T12:12:14.407Z,5.50
2022-12-04T12:14:59.887Z,5.53
2022-12-04T12:17:41.649Z,5.54
2022-12-04T12:20:15.391Z,5.54
2022-12-04T12:23:15.695Z,5.52
2022-12-04T12:26:08.814Z,5.54
2022-12-04T12:28:48.247Z,5.56
2022-12-04T12:31:47.548Z,5.55
2022-12-04T12:34:37.386Z,5.55
2022-12-04T12:37:28.659Z,5.55
2022-12-04T12:40:07.570Z,5.54
2022-12-04T12:42:39.235Z,5.58
2022-12-04T12:45:28.635Z,5.60
2022-12-04T12:47:59.092Z,5.60
2022-12-04T12:50:38.655Z,5.60
2022-12-04T12:53:16.715Z,5.63
2022-12-04T12:55:56.631Z,5.64
2022-12-04T12:58:38.565Z,5.67
2022-12-04T13:01:15.300Z,5.69
2022-12-04T13:04:03.458Z,5.69
2022-12-04T13:06:38.911Z,5.67
2022-12-04T13:09:27.503Z,5.68
2022-12-04T13:12:00.083Z,5.68
2022-12-04T13:14:26.594Z,5.70
2022-12-04T13:17:03.984Z,5.72
2022-12-04T13:19:43.489Z,5.74
2022-12-04T13:22:29.674Z,5.77
2022-12-04T13:24:58.861Z,5.76
2022-12-04T13:27:47.181Z,5.79
2022-12-04T13:30:20.024Z,5.82
2022-12-04T13:33:25.914Z,5.82
2022-12-04T13:36:16.922Z,5.84
2022-12-04T13:39:20.268Z,5.84
2022-12-04T13:41:47.111Z,5.86
2022-12-04T13:44:20.697Z,5.85
2022-12-04T13:46:57.075Z,5.87
2022-12-04T13:49:29.209Z,5.88
2022-12-04T13:51:57.491Z,5.89
2022-12-04T13:54:32.173Z,5.90
2022-12-04T13:57:17.046Z,5.90
2022-12-04T13:59:44.422Z,5.90
2022-12-04T14:02:28.792Z,5.89
2022-12-04T14:04:59.105Z,5.92
2022-12-04T14:07:32.987Z,5.92
2022-12-04T14:10:04.589Z,5.92
2022-12-04T14:12:39.059Z,5.94
2022-12-04T14:15:26.936Z,5.95
2022-12-04T14:18:18.646Z,5.95
2022-12-04T14:20:45.207Z,5.94
2022-12-04T14:23:26.226Z,5.94
2022-12-04T14:25:59.954Z,5.95
2022-12-04T14:28:42.289Z,5.96
2022-12-04T14:31:09.076Z,5.98
2022-12-04T14:33:45.163Z,5.99
2022-12-04T14:36:28.390Z,5.99
2022-12-04T14:39:11.662Z,5.99
2022-12-04T14:41:38.815Z,5.99
2022-12-04T14:44:05.446Z,5.97
2022-12-04T14:46:39.963Z,5.98
2022-12-04T14:49:46.971Z,5.98
2022-12-04T14:52:27.135Z,5.96
2022-12-04T14:55:13.614Z,5.97
2022-12-04T14:58:24.062Z,5.99
2022-12-04T15:00:52.605Z,6.00
2022-12-04T15:03:19.426Z,5.99
2022-12-04T15:05:46.550Z,5.99
2022-12-04T15:08:14.228Z,5.97
2022-12-04T15:11:06.752Z,5.97
2022-12-04T15:13:35.621Z,5.97
2022-12-04T15:16:17.491Z,5.98
2022-12-04T15:19:00.346Z,6.00
2022-12-04T15:21:39.710Z,5.98
2022-12-04T15:24:11.141Z,5.98
2022-12-04T15:26:39.016Z,5.99
2022-12-04T15:29:07.280Z,5.96
2022-12-04T15:31:43.387Z,6.00
2022-12-04T15:34:16.957Z,6.04
2022-12-04T15:36:49.064Z,6.06
2022-12-04T15:39:20.129Z,6.08
2022-12-04T15:41:46.952Z,6.07
2022-12-04T15:45:02.200Z,6.07
2022-12-04T15:47:30.029Z,6.07
2022-12-04T15:50:11.469Z,6.06
2022-12-04T15:52:38.393Z,6.09
2022-12-04T15:55:09.065Z,6.11
2022-12-04T15:57:38.504Z,6.10
2022-12-04T16:00:08.024Z,6.08
2022-12-04T16:02:40.113Z,6.08
2022-12-04T16:05:21.411Z,6.11
2022-12-04T16:07:50.729Z,6.12
2022-12-04T16:10:34.820Z,6.13
2022-12-04T16:13:03.337Z,6.13
2022-12-04T16:15:47.835Z,6.13
2022-12-04T16:18:14.495Z,6.15
2022-12-04T16:20:41.285Z,6.16
2022-12-04T16:23:07.808Z,6.16
2022-12-04T16:25:34.157Z,6.18
2022-12-04T16:28:01.354Z,6.20
2022-12-04T16:30:31.605Z,6.23
2022-12-04T16:32:58.118Z,6.22
2022-12-04T16:35:24.496Z,6.24
2022-12-04T16:37:50.955Z,6.24
2022-12-04T16:40:17.518Z,6.28
2022-12-04T16:42:44.421Z,6.26
2022-12-04T16:45:26.472Z,6.25
2022-12-04T16:47:53.039Z,6.27
2022-12-04T16:50:19.448Z,6.30
2022-12-04T16:52:45.984Z,6.29
2022-12-04T16:55:33.389Z,6.30
2022-12-04T16:57:59.839Z,6.30
2022-12-04T17:00:26.215Z,6.28
2022-12-04T17:02:53.055Z,6.30
2022-12-04T17:05:25.445Z,6.30
2022-12-04T17:07:52.698Z,6.32
2022-12-04T17:10:23.766Z,6.32
2022-12-04T17:12:54.117Z,6.34
2022-12-04T17:15:20.589Z,6.35
2022-12-04T17:17:47.111Z,6.35
2022-12-04T17:20:16.985Z,6.37
2022-12-04T17:22:43.563Z,6.37
2022-12-04T17:25:10.964Z,6.39
2022-12-04T17:27:37.346Z,6.42
2022-12-04T17:30:05.573Z,6.42
2022-12-04T17:32:32.695Z,6.43
2022-12-04T17:34:59.338Z,6.44
2022-12-04T17:37:25.931Z,6.44
2022-12-04T17:39:52.323Z,6.47
2022-12-04T17:42:19.309Z,6.47
2022-12-04T17:44:45.701Z,6.46
2022-12-04T17:47:12.386Z,6.47
2022-12-04T17:49:38.900Z,6.48
2022-12-04T17:52:05.443Z,6.50
2022-12-04T17:54:31.855Z,6.50
2022-12-04T17:56:58.330Z,6.51
2022-12-04T17:59:24.743Z,6.52
2022-12-04T18:01:51.281Z,6.54
2022-12-04T18:04:18.753Z,6.56
2022-12-04T18:06:46.227Z,6.56
2022-12-04T18:09:19.767Z,6.56
2022-12-04T18:11:48.012Z,6.56
2022-12-04T18:14:18.212Z,6.58
2022-12-04T18:16:47.697Z,6.60
2022-12-04T18:19:15.128Z,6.61
2022-12-04T18:21:41.869Z,6.61
2022-12-04T18:24:08.418Z,6.62
2022-12-04T18:26:48.020Z,6.62
2022-12-04T18:29:17.950Z,6.65
2022-12-04T18:31:45.055Z,6.65
2022-12-04T18:34:12.145Z,6.66
2022-12-04T18:36:40.598Z,6.64
2022-12-04T18:39:21.884Z,6.62
2022-12-04T18:41:48.858Z,6.63
2022-12-04T18:44:16.192Z,6.63
2022-12-04T18:46:42.916Z,6.64
2022-12-04T18:49:10.313Z,6.64
2022-12-04T18:51:43.711Z,6.67
2022-12-04T18:54:19.233Z,6.67
2022-12-04T18:56:45.849Z,6.65
2022-12-04T18:59:25.007Z,6.65
2022-12-04T19:01:53.061Z,6.65
2022-12-04T19:04:21.947Z,6.66
2022-12-04T19:06:51.973Z,6.65
2022-12-04T19:09:35.484Z,6.64
2022-12-04T19:12:09.016Z,6.66
2022-12-04T19:14:35.368Z,6.66
2022-12-04T19:17:02.223Z,6.64
2022-12-04T19:19:31.594Z,6.67
2022-12-04T19:21:59.016Z,6.68
2022-12-04T19:24:25.382Z,6.67
2022-12-04T19:26:53.967Z,6.66
2022-12-04T19:29:20.429Z,6.66
2022-12-04T19:31:47.093Z,6.68
2022-12-04T19:34:13.582Z,6.66
2022-12-04T19:36:41.101Z,6.64
2022-12-04T19:39:07.549Z,6.66
2022-12-04T19:41:41.285Z,6.66
2022-12-04T19:44:40.247Z,6.66
2022-12-04T19:46:56.136Z,6.67
2022-12-04T19:49:22.584Z,6.69
2022-12-04T19:51:49.437Z,6.67
2022-12-04T19:54:16.763Z,6.67
2022-12-04T19:56:46.070Z,6.69
2022-12-04T19:59:13.039Z,6.69
2022-12-04T20:01:39.563Z,6.69
2022-12-04T20:04:07.869Z,6.70
2022-12-04T20:06:40.537Z,6.71
2022-12-04T20:09:09.438Z,6.71
2022-12-04T20:11:37.370Z,6.69
2022-12-04T20:14:05.047Z,6.69
2022-12-04T20:16:33.184Z,6.69
2022-12-04T20:19:01.352Z,6.68
2022-12-04T20:21:31.916Z,6.69
2022-12-04T20:24:02.213Z,6.69
2022-12-04T20:26:31.541Z,6.72
2022-12-04T20:28:59.599Z,6.72
2022-12-04T20:31:34.747Z,6.73
2022-12-04T20:34:03.798Z,6.72
2022-12-04T20:36:32.180Z,6.72
2022-12-04T20:38:59.407Z,6.73
2022-12-04T20:41:28.463Z,6.74
2022-12-04T20:43:55.890Z,6.74
2022-12-04T20:46:28.226Z,6.75
2022-12-04T20:48:57.808Z,6.74
2022-12-04T20:51:30.815Z,6.74
2022-12-04T20:53:58.808Z,6.75
2022-12-04T20:56:29.731Z,6.76
2022-12-04T20:58:58.190Z,6.76
2022-12-04T21:01:25.694Z,6.75
2022-12-04T21:03:53.127Z,6.75
2022-12-04T21:06:23.082Z,6.76
2022-12-04T21:08:53.909Z,6.76
2022-12-04T21:11:21.740Z,6.77
2022-12-04T21:14:06.923Z,6.76
2022-12-04T21:16:33.390Z,6.76
2022-12-04T21:18:59.847Z,6.76
2022-12-04T21:21:27.473Z,6.78
2022-12-04T21:23:53.937Z,6.78
2022-12-04T21:26:20.604Z,6.79
2022-12-04T21:28:47.205Z,6.77
2022-12-04T21:31:13.733Z,6.74
2022-12-04T21:33:40.272Z,6.74
2022-12-04T21:36:09.111Z,6.76
2022-12-04T21:38:37.277Z,6.79
2022-12-04T21:41:05.852Z,6.78
2022-12-04T21:43:33.328Z,6.78
2022-12-04T21:46:09.483Z,6.75
2022-12-04T21:48:37.061Z,6.77
2022-12-04T21:51:13.276Z,6.79
2022-12-04T21:53:54.775Z,6.81
2022-12-04T21:56:22.803Z,6.83
2022-12-04T21:58:49.396Z,6.84
2022-12-04T22:01:17.521Z,6.86
2022-12-04T22:03:44.447Z,6.87
2022-12-04T22:06:11.051Z,6.88
2022-12-04T22:08:39.444Z,6.88
2022-12-04T22:11:07.818Z,6.87
2022-12-04T22:13:36.177Z,6.87
2022-12-04T22:16:08.732Z,6.87
2022-12-04T22:18:35.128Z,6.86
2022-12-04T22:21:05.288Z,6.88
2022-12-04T22:23:31.839Z,6.87
2022-12-04T22:26:10.108Z,6.87
2022-12-04T22:28:37.071Z,6.87
2022-12-04T22:31:06.432Z,6.85
2022-12-04T22:33:33.375Z,6.86
2022-12-04T22:36:11.290Z,6.87
2022-12-04T22:38:52.719Z,6.88
2022-12-04T22:41:25.789Z,6.87
2022-12-04T22:43:52.574Z,6.87
2022-12-04T22:46:19.064Z,6.86
2022-12-04T22:48:45.608Z,6.86
2022-12-04T22:51:16.315Z,6.86
2022-12-04T22:53:47.827Z,6.81
2022-12-04T22:56:17.447Z,6.81
2022-12-04T22:58:44.445Z,6.81
2022-12-04T23:01:35.600Z,6.83
2022-12-04T23:04:03.747Z,6.86
2022-12-04T23:06:32.594Z,6.87
2022-12-04T23:09:02.626Z,6.88
2022-12-04T23:11:29.333Z,6.88
2022-12-04T23:14:01.107Z,6.87
2022-12-04T23:16:29.730Z,6.90
2022-12-04T23:18:56.187Z,6.92
2022-12-04T23:21:23.389Z,6.92
2022-12-04T23:23:51.649Z,6.94
2022-12-04T23:26:25.133Z,6.92
2022-12-04T23:28:51.915Z,6.93
2022-12-04T23:31:18.509Z,6.94
2022-12-04T23:33:45.086Z,6.94
2022-12-04T23:36:12.275Z,6.94
2022-12-04T23:38:39.967Z,6.95
2022-12-04T23:41:10.138Z,6.96
2022-12-04T23:43:37.144Z,6.97
2022-12-04T23:46:10.417Z,6.96
2022-12-04T23:48:37.991Z,6.98
2022-12-04T23:51:04.525Z,6.97
2022-12-04T23:53:30.900Z,6.96
2022-12-04T23:55:59.243Z,6.97
2022-12-04T23:58:25.759Z,6.96
